Main page
METAR-TAF:

METAR-TAF

Airports :

Bahawalpur Airport

Bahawalpur, Pakistan

latitude: 29-20-53N, longitude: 71-43-04E, elevation: 119 m

METAR: missing

Time: 02:39 (21:39 UTC)

Forecast

The report was made 5 hours and 54 minutes ago, at 15:45 UTC
Forecast valid from 05 at 18 UTC to 06 at 12 UTC
Wind 10 kt from the South
Visibility: 4000 m
Few clouds at a height of 4000 ft
Scattered clouds at a height of 12000 ft
smoke
Probability 30% :
Temporary
from 06 at 00 UTC to 06 at 04 UTC
Wind 20 kt from the Northeast
Visibility: 2000 m
Few clouds at a height of 3000 ft, Cumulonimbus.
Scattered clouds at a height of 4000 ft
Broken clouds at a height of 10000 ft
thunderstorm, rain

TAF: OPBW 051545Z 0518/0612 18010KT 4000 FU FEW040 SCT120 TN28/0601Z TX39/0610Z PROB30 TEMPO 0600/0604 05020KT 2000 TSRA FEW030CB SCT040 BKN100

Weather observations and forecasts of more than 4000 airports (METAR and TAF reports).

The available stations are represented by yellow and red dots on the map.

Hover mouse over dot to see the name of the station.

Then click to see weather observations and forecasts.

To change the map : click on the green buttons with a black cross to zoom in, on the green button with a dash to zoom out, or on the green arrows for adjacent maps.


METAR-TAF: